Time;durP1;ratioP1;P1;durP2;ratioP2;P2;SDS_P1;SDS_P2;PMS_P1;PMS_P2;Temp;Humidity;BMP_temperature;BMP_pressure;BME280_temperature;BME280_humidity;BME280_pressure;Samples;Min_cycle;Max_cycle;Signal;HPM_P1;HPM_P2
2022/04/21 00:00:19;;;;;;;19.23;8.63;;;7.80;99.90;;;;;;5029114;28;20107;-65
2022/04/21 00:02:45;;;;;;;11.70;7.28;;;7.90;99.90;;;;;;5007486;28;20053;-65
2022/04/21 00:05:12;;;;;;;12.90;7.68;;;7.90;99.90;;;;;;4993872;28;20045;-65
2022/04/21 00:07:38;;;;;;;10.02;6.95;;;8.00;99.90;;;;;;5028419;28;20480;-65
2022/04/21 00:10:08;;;;;;;11.20;7.05;;;8.00;99.90;;;;;;5009493;28;20048;-65
2022/04/21 00:12:35;;;;;;;9.65;6.53;;;8.00;99.90;;;;;;5028555;28;20045;-65
2022/04/21 00:15:03;;;;;;;12.75;8.40;;;7.90;99.90;;;;;;5026513;28;20038;-66
2022/04/21 00:17:28;;;;;;;11.55;7.28;;;7.90;99.90;;;;;;5028860;28;20323;-65
2022/04/21 00:19:54;;;;;;;15.55;8.35;;;7.80;99.90;;;;;;5026620;28;20575;-65
2022/04/21 00:25:05;;;;;;;11.40;7.25;;;7.70;99.90;;;;;;5010293;28;20049;-65
2022/04/21 00:27:36;;;;;;;11.52;7.30;;;7.70;99.90;;;;;;5027007;28;20491;-65
2022/04/21 00:30:02;;;;;;;11.30;7.38;;;7.70;99.90;;;;;;5028247;28;20124;-65
2022/04/21 00:32:27;;;;;;;15.25;7.50;;;7.70;99.90;;;;;;5007989;28;20589;-65
2022/04/21 00:34:53;;;;;;;14.20;7.38;;;7.60;99.90;;;;;;5028073;28;20136;-66
2022/04/21 00:37:19;;;;;;;12.57;7.55;;;7.70;99.90;;;;;;5027220;28;20041;-65
2022/04/21 00:39:45;;;;;;;13.85;8.40;;;7.60;99.90;;;;;;5028265;28;20480;-65
2022/04/21 00:42:11;;;;;;;14.63;9.35;;;7.50;99.90;;;;;;5027171;28;20622;-65
2022/04/21 00:44:36;;;;;;;14.05;8.63;;;7.50;99.90;;;;;;5026339;28;20053;-65
2022/04/21 00:47:05;;;;;;;15.50;8.98;;;7.50;99.90;;;;;;5027112;28;20057;-65
2022/04/21 00:49:31;;;;;;;17.10;9.55;;;7.40;99.90;;;;;;5026603;28;20116;-66
2022/04/21 00:51:59;;;;;;;16.20;9.27;;;7.40;99.90;;;;;;5027162;28;20418;-65
2022/04/21 00:54:25;;;;;;;16.15;9.07;;;7.30;99.90;;;;;;4995920;28;20115;-65
2022/04/21 00:56:51;;;;;;;17.27;9.02;;;7.30;99.90;;;;;;5025014;28;20554;-65
2022/04/21 00:59:17;;;;;;;11.90;8.68;;;7.30;99.90;;;;;;5020404;28;20119;-65
2022/04/21 01:04:28;;;;;;;16.60;9.05;;;7.20;99.90;;;;;;5027880;28;20484;-65
2022/04/21 01:06:55;;;;;;;15.07;8.75;;;7.20;99.90;;;;;;5025972;28;20065;-65
2022/04/21 01:09:21;;;;;;;12.77;8.90;;;7.30;99.90;;;;;;5027470;28;20049;-65
2022/04/21 01:11:49;;;;;;;12.23;8.50;;;7.30;99.90;;;;;;5026019;28;20042;-66
2022/04/21 01:14:15;;;;;;;14.23;9.05;;;7.30;99.90;;;;;;5026925;28;20080;-65
2022/04/21 01:16:41;;;;;;;18.00;8.60;;;7.30;99.90;;;;;;5027084;28;20068;-65
2022/04/21 01:19:07;;;;;;;11.93;8.38;;;7.30;99.90;;;;;;5026035;28;20092;-65
2022/04/21 01:21:33;;;;;;;13.07;8.55;;;7.20;99.90;;;;;;5027503;28;20037;-65
2022/04/21 01:23:59;;;;;;;14.38;8.27;;;7.30;99.90;;;;;;5026035;28;20160;-65
2022/04/21 01:26:35;;;;;;;13.98;9.02;;;7.30;99.90;;;;;;5027431;28;20056;-66
2022/04/21 01:29:02;;;;;;;11.25;7.88;;;7.30;99.90;;;;;;5007593;28;20049;-65
2022/04/21 01:31:29;;;;;;;13.75;7.65;;;7.40;99.90;;;;;;5027174;28;20044;-65
2022/04/21 01:33:55;;;;;;;10.52;7.25;;;7.40;99.90;;;;;;5026392;28;20049;-65
2022/04/21 01:36:21;;;;;;;14.65;6.97;;;7.40;99.90;;;;;;5008819;28;20114;-65
2022/04/21 01:41:38;;;;;;;9.65;6.68;;;7.50;99.90;;;;;;4994872;28;20473;-65
2022/04/21 01:44:04;;;;;;;8.80;5.95;;;7.50;99.90;;;;;;5026403;28;20121;-65
2022/04/21 01:46:30;;;;;;;12.10;5.63;;;7.50;99.90;;;;;;5026105;28;20095;-65
2022/04/21 01:48:55;;;;;;;11.98;5.57;;;7.60;99.90;;;;;;5009217;28;20045;-65
2022/04/21 01:51:21;;;;;;;11.88;5.28;;;7.70;99.90;;;;;;5026405;28;20048;-65
2022/04/21 01:53:47;;;;;;;10.98;5.20;;;7.80;99.90;;;;;;5026154;28;20038;-65
2022/04/21 01:56:12;;;;;;;7.68;5.13;;;8.00;99.90;;;;;;5009172;28;20080;-65
2022/04/21 01:58:38;;;;;;;7.50;5.10;;;8.00;99.90;;;;;;5029491;28;20466;-65
2022/04/21 02:01:04;;;;;;;9.40;5.57;;;8.10;99.90;;;;;;5030906;28;20034;-65
2022/04/21 02:03:32;;;;;;;8.75;4.95;;;8.20;99.90;;;;;;5029573;28;20132;-65
2022/04/21 02:05:58;;;;;;;6.15;4.70;;;8.30;99.90;;;;;;5031462;28;20052;-65
2022/04/21 02:08:24;;;;;;;7.07;4.50;;;8.30;99.90;;;;;;5029597;28;20058;-66
2022/04/21 02:10:50;;;;;;;7.57;4.85;;;8.40;99.90;;;;;;5030465;28;20041;-65
2022/04/21 02:13:16;;;;;;;4.95;4.22;;;8.40;99.90;;;;;;5012597;28;20041;-65
2022/04/21 02:15:41;;;;;;;7.32;4.53;;;8.40;99.90;;;;;;5029698;28;20045;-65
2022/04/21 02:18:07;;;;;;;9.65;4.85;;;8.40;99.90;;;;;;5012478;28;20104;-65
2022/04/21 02:20:33;;;;;;;11.32;4.55;;;8.50;99.90;;;;;;5028738;28;20042;-65
2022/04/21 02:22:58;;;;;;;7.63;4.88;;;8.40;99.90;;;;;;5012731;28;20053;-65
2022/04/21 02:25:24;;;;;;;8.38;4.43;;;8.40;99.90;;;;;;5029001;28;20049;-65
2022/04/21 02:27:50;;;;;;;10.07;4.07;;;8.40;99.90;;;;;;5012908;28;20048;-65
2022/04/21 02:30:18;;;;;;;5.93;4.90;;;8.40;99.90;;;;;;5029450;28;20056;-65
2022/04/21 02:32:45;;;;;;;6.32;4.63;;;8.40;99.90;;;;;;5025939;28;20042;-65
2022/04/21 02:35:12;;;;;;;7.20;4.70;;;8.40;99.90;;;;;;5029514;28;20480;-65
2022/04/21 02:37:43;;;;;;;8.23;4.32;;;8.30;99.90;;;;;;5028635;28;20511;-65
2022/04/21 02:40:10;;;;;;;8.32;4.15;;;8.40;99.90;;;;;;5029949;28;20414;-65
2022/04/21 02:42:40;;;;;;;5.18;4.45;;;8.40;99.90;;;;;;5010766;28;20128;-65
2022/04/21 02:45:14;;;;;;;5.22;3.95;;;8.40;99.90;;;;;;5029859;28;20046;-65
2022/04/21 02:47:43;;;;;;;4.53;3.95;;;8.30;99.90;;;;;;5030685;28;20054;-65
2022/04/21 02:50:11;;;;;;;4.13;3.83;;;8.40;99.90;;;;;;5028821;28;20073;-65
2022/04/21 02:52:38;;;;;;;4.75;3.85;;;8.40;99.90;;;;;;5012306;28;20045;-65
2022/04/21 02:57:50;;;;;;;5.10;3.80;;;8.40;99.90;;;;;;5030624;28;20073;-65
2022/04/21 03:00:16;;;;;;;5.82;3.50;;;8.40;99.90;;;;;;5011032;28;20056;-65
2022/04/21 03:02:42;;;;;;;7.25;4.00;;;8.40;99.90;;;;;;5029188;28;20053;-65
2022/04/21 03:05:08;;;;;;;7.70;4.35;;;8.40;99.90;;;;;;4979734;28;20130;-65
2022/04/21 03:07:34;;;;;;;9.55;4.32;;;8.40;99.90;;;;;;5028802;28;20042;-65
2022/04/21 03:10:00;;;;;;;5.78;3.92;;;8.40;99.90;;;;;;5029466;28;20045;-65
2022/04/21 03:12:27;;;;;;;7.63;3.47;;;8.40;99.90;;;;;;5027918;28;20045;-65
2022/04/21 03:14:55;;;;;;;5.40;3.53;;;8.30;99.90;;;;;;5030202;28;20087;-65
2022/04/21 03:17:21;;;;;;;4.93;3.70;;;8.30;99.90;;;;;;5010400;28;20045;-65
2022/04/21 03:19:47;;;;;;;6.47;4.43;;;8.30;99.90;;;;;;4995351;28;20049;-65
2022/04/21 03:25:05;;;;;;;4.53;4.00;;;8.30;99.90;;;;;;5008676;28;20061;-65
2022/04/21 03:27:31;;;;;;;5.00;3.80;;;8.20;99.90;;;;;;4992426;28;20046;-65
2022/04/21 03:30:01;;;;;;;7.85;3.90;;;8.30;99.90;;;;;;5008566;28;20099;-65
2022/04/21 03:32:26;;;;;;;5.75;4.18;;;8.20;99.90;;;;;;4973152;28;20041;-65
2022/04/21 03:34:59;;;;;;;5.30;4.03;;;8.20;99.90;;;;;;5028017;28;20049;-65
2022/04/21 03:37:24;;;;;;;4.70;3.92;;;8.20;99.90;;;;;;5028454;28;20096;-66
2022/04/21 03:39:51;;;;;;;6.10;4.40;;;8.20;99.90;;;;;;5029686;28;20037;-65
2022/04/21 03:42:26;;;;;;;6.25;4.10;;;8.10;99.90;;;;;;5009982;28;20072;-65
2022/04/21 03:44:52;;;;;;;7.78;4.07;;;8.10;99.90;;;;;;5028809;28;20069;-65
2022/04/21 03:47:19;;;;;;;9.32;4.90;;;8.10;99.90;;;;;;5027182;28;20753;-65
2022/04/21 03:49:44;;;;;;;5.43;4.40;;;8.00;99.90;;;;;;5029281;28;20128;-65
2022/04/21 03:52:10;;;;;;;8.60;4.75;;;8.10;99.90;;;;;;5010177;28;20163;-65
2022/04/21 03:54:37;;;;;;;4.47;4.05;;;8.10;99.90;;;;;;4994065;28;20120;-65
2022/04/21 03:57:03;;;;;;;5.07;4.43;;;8.10;99.90;;;;;;5029245;28;20050;-65
2022/04/21 03:59:29;;;;;;;4.75;4.10;;;8.00;99.90;;;;;;5027436;28;20045;-65
2022/04/21 04:02:02;;;;;;;8.18;4.72;;;8.00;99.90;;;;;;5028541;28;20049;-65
2022/04/21 04:04:28;;;;;;;4.95;4.45;;;8.00;99.90;;;;;;5026805;28;20046;-66
2022/04/21 04:12:23;;;;;;;6.25;5.20;;;8.00;99.90;;;;;;5027173;28;20439;-65
2022/04/21 04:14:49;;;;;;;6.90;5.10;;;8.00;99.90;;;;;;5028726;28;20060;-65
2022/04/21 04:17:14;;;;;;;6.13;4.28;;;8.00;99.90;;;;;;5009300;28;20045;-65
2022/04/21 04:19:40;;;;;;;7.78;5.07;;;7.90;99.90;;;;;;4993918;28;20515;-65
2022/04/21 04:22:06;;;;;;;7.78;4.85;;;8.00;99.90;;;;;;5026093;28;20037;-65
2022/04/21 04:24:38;;;;;;;12.05;5.88;;;8.00;99.90;;;;;;5011811;28;20056;-65
2022/04/21 04:27:04;;;;;;;10.40;5.55;;;7.90;99.90;;;;;;5027244;28;20092;-65
2022/04/21 04:29:29;;;;;;;8.32;5.57;;;7.90;99.90;;;;;;5009590;28;20442;-65
2022/04/21 04:31:57;;;;;;;13.77;5.95;;;7.90;99.90;;;;;;5010687;28;20061;-65
2022/04/21 04:34:23;;;;;;;8.00;5.10;;;7.90;99.90;;;;;;5008865;28;20075;-65
2022/04/21 04:36:49;;;;;;;11.55;5.47;;;7.90;99.90;;;;;;5027902;28;20045;-65
2022/04/21 04:39:16;;;;;;;16.98;5.55;;;7.90;99.90;;;;;;5026138;28;20048;-65
2022/04/21 04:44:26;;;;;;;7.05;4.95;;;8.00;99.90;;;;;;5027426;28;20061;-65
2022/04/21 04:46:52;;;;;;;9.15;5.63;;;8.00;99.90;;;;;;5008994;28;20127;-65
2022/04/21 04:49:18;;;;;;;9.65;5.47;;;8.00;99.90;;;;;;5028070;28;20037;-64
2022/04/21 04:51:44;;;;;;;7.28;5.10;;;8.10;99.90;;;;;;5026692;28;20507;-65
2022/04/21 04:54:12;;;;;;;7.97;5.28;;;8.10;99.90;;;;;;5027916;28;20037;-65
2022/04/21 04:56:39;;;;;;;6.70;4.75;;;8.10;99.90;;;;;;5026164;28;20049;-66
2022/04/21 04:59:05;;;;;;;11.43;5.78;;;8.10;99.90;;;;;;5028069;28;20049;-65
2022/04/21 05:01:49;;;;;;;7.40;6.00;;;8.00;99.90;;;;;;5008194;28;20053;-65
2022/04/21 05:04:19;;;;;;;8.60;5.95;;;8.00;99.90;;;;;;5008653;28;20041;-65
2022/04/21 05:06:48;;;;;;;8.68;6.28;;;8.00;99.90;;;;;;5028019;28;20115;-65
2022/04/21 05:09:16;;;;;;;10.05;6.03;;;8.00;99.90;;;;;;5006864;28;20068;-65
2022/04/21 05:11:43;;;;;;;9.45;5.93;;;7.90;99.90;;;;;;5010160;28;20148;-65
2022/04/21 05:14:10;;;;;;;8.65;6.20;;;7.90;99.90;;;;;;5026405;28;20048;-65
2022/04/21 05:16:37;;;;;;;11.20;5.68;;;7.90;99.90;;;;;;5026853;28;20057;-65
2022/04/21 05:19:04;;;;;;;10.25;5.65;;;7.90;99.90;;;;;;5026874;28;20484;-65
2022/04/21 05:21:30;;;;;;;8.70;5.75;;;7.90;99.90;;;;;;5025972;28;20099;-65
2022/04/21 05:23:57;;;;;;;8.00;4.97;;;7.90;99.90;;;;;;5009632;28;20050;-65
2022/04/21 05:26:25;;;;;;;9.20;6.05;;;8.00;99.90;;;;;;5007861;28;20917;-65
2022/04/21 05:28:51;;;;;;;6.70;5.07;;;8.00;99.90;;;;;;5009898;28;20930;-66
2022/04/21 05:31:17;;;;;;;7.35;5.57;;;8.10;99.90;;;;;;5024887;28;20049;-65
2022/04/21 05:33:43;;;;;;;7.13;5.60;;;8.10;99.90;;;;;;5026517;28;20568;-65
2022/04/21 05:36:10;;;;;;;11.60;5.72;;;8.10;99.90;;;;;;5026329;28;20057;-65
2022/04/21 05:38:37;;;;;;;6.70;5.55;;;8.20;99.90;;;;;;5025272;28;20152;-65
2022/04/21 05:41:04;;;;;;;7.45;5.63;;;8.20;99.90;;;;;;5027004;28;20923;-65
2022/04/21 05:43:43;;;;;;;8.35;5.80;;;8.30;99.90;;;;;;4988535;28;20092;-65
2022/04/21 05:46:10;;;;;;;7.65;5.05;;;8.40;99.90;;;;;;5024768;28;20037;-65
2022/04/21 05:48:37;;;;;;;12.13;5.35;;;8.50;99.90;;;;;;5024655;28;20053;-65
2022/04/21 05:51:03;;;;;;;7.68;5.57;;;8.60;99.90;;;;;;5026546;28;20049;-65
2022/04/21 05:53:32;;;;;;;10.95;5.75;;;8.70;99.90;;;;;;5027813;28;20048;-65
2022/04/21 05:55:59;;;;;;;8.52;5.70;;;8.70;99.90;;;;;;5007607;28;20046;-65
2022/04/21 05:58:26;;;;;;;10.95;5.75;;;8.80;99.90;;;;;;5025170;28;20037;-65
2022/04/21 06:00:51;;;;;;;12.82;5.10;;;8.80;99.90;;;;;;5024081;28;20503;-65
2022/04/21 06:03:21;;;;;;;13.77;5.57;;;8.80;99.90;;;;;;5026231;28;20033;-65
2022/04/21 06:05:47;;;;;;;8.02;5.50;;;9.00;99.90;;;;;;5006626;28;20734;-65
2022/04/21 06:08:13;;;;;;;11.98;5.05;;;9.40;99.90;;;;;;5027942;28;20037;-66
2022/04/21 06:10:38;;;;;;;10.20;5.07;;;9.60;99.90;;;;;;5006833;28;20857;-65
2022/04/21 06:13:04;;;;;;;15.32;5.30;;;9.60;99.90;;;;;;5009417;28;20081;-65
2022/04/21 06:15:33;;;;;;;8.73;5.10;;;9.60;99.90;;;;;;5011923;28;20114;-65
2022/04/21 06:17:59;;;;;;;7.75;5.22;;;9.60;99.90;;;;;;5045424;28;20083;-65
2022/04/21 06:20:29;;;;;;;7.88;4.97;;;9.70;99.90;;;;;;5017657;28;20554;-65
2022/04/21 06:22:55;;;;;;;8.27;5.13;;;10.00;99.90;;;;;;5008045;28;20034;-65
2022/04/21 06:25:21;;;;;;;14.40;5.45;;;10.30;98.90;;;;;;5026743;28;20685;-65
2022/04/21 06:27:48;;;;;;;8.63;4.93;;;10.70;96.00;;;;;;5025515;28;20048;-65
2022/04/21 06:30:14;;;;;;;16.20;5.13;;;10.90;93.60;;;;;;5008927;28;20574;-65
2022/04/21 06:32:39;;;;;;;7.95;4.57;;;11.00;92.40;;;;;;5025143;28;20198;-65
2022/04/21 06:35:06;;;;;;;9.32;4.43;;;10.80;93.20;;;;;;5025227;28;20038;-65
2022/04/21 06:37:31;;;;;;;7.85;3.63;;;10.60;92.80;;;;;;5023078;28;20048;-66
2022/04/21 06:39:57;;;;;;;4.55;4.13;;;10.40;92.40;;;;;;5025657;28;20136;-65
2022/04/21 06:42:23;;;;;;;5.65;4.18;;;10.30;92.80;;;;;;5025935;28;20126;-65
2022/04/21 06:50:18;;;;;;;9.63;3.55;;;10.20;93.80;;;;;;5009877;28;20084;-65
2022/04/21 06:52:44;;;;;;;5.82;3.70;;;10.40;92.50;;;;;;5009101;28;20064;-65
2022/04/21 06:55:10;;;;;;;8.30;3.25;;;10.50;92.60;;;;;;4993421;28;20480;-65
2022/04/21 06:57:35;;;;;;;6.25;3.05;;;10.70;90.80;;;;;;5008420;28;20081;-65
2022/04/21 07:00:03;;;;;;;2.83;2.65;;;10.80;84.70;;;;;;5018782;28;20049;-65
2022/04/21 07:02:33;;;;;;;4.38;2.85;;;11.00;87.70;;;;;;5010192;28;20049;-65
2022/04/21 07:05:06;;;;;;;4.80;3.08;;;11.30;83.50;;;;;;5030096;28;20050;-64
2022/04/21 07:07:32;;;;;;;6.03;2.92;;;11.60;83.40;;;;;;5009933;28;20413;-64
2022/04/21 07:09:58;;;;;;;3.97;2.47;;;11.90;88.60;;;;;;5024806;28;20037;-64
2022/04/21 07:12:29;;;;;;;3.40;2.75;;;12.20;77.50;;;;;;5009617;28;20453;-65
2022/04/21 07:14:57;;;;;;;2.80;2.30;;;12.40;74.80;;;;;;5027457;28;20088;-65
2022/04/21 07:17:23;;;;;;;2.67;2.17;;;12.60;69.30;;;;;;5027241;28;20075;-64
2022/04/21 07:19:49;;;;;;;3.38;2.80;;;12.70;65.20;;;;;;5027942;28;20496;-65
2022/04/21 07:22:15;;;;;;;5.05;2.35;;;12.90;63.60;;;;;;5028165;28;20045;-64
2022/04/21 07:24:40;;;;;;;6.53;2.33;;;12.90;63.30;;;;;;5010036;28;20045;-65
2022/04/21 07:27:06;;;;;;;2.75;2.33;;;12.90;58.90;;;;;;5028242;28;20048;-64
2022/04/21 07:29:33;;;;;;;2.25;2.03;;;13.00;61.70;;;;;;5028676;28;20060;-64
2022/04/21 07:31:59;;;;;;;2.53;1.75;;;13.10;57.80;;;;;;5023367;28;20080;-64
2022/04/21 07:34:25;;;;;;;3.15;1.60;;;13.20;50.20;;;;;;5027735;28;20068;-64
2022/04/21 07:36:51;;;;;;;7.13;2.00;;;13.20;50.20;;;;;;5009228;28;20037;-65
2022/04/21 07:39:18;;;;;;;2.08;1.77;;;13.30;49.40;;;;;;5011089;28;20396;-65
2022/04/21 07:41:45;;;;;;;3.83;2.00;;;13.40;50.40;;;;;;5008817;28;20400;-64
2022/04/21 07:44:11;;;;;;;2.20;1.90;;;13.50;46.40;;;;;;5006137;28;20046;-65
2022/04/21 07:46:37;;;;;;;3.35;2.17;;;13.40;52.00;;;;;;5010044;28;20143;-64
2022/04/21 07:51:47;;;;;;;4.32;1.85;;;13.70;45.90;;;;;;5028454;28;20045;-65
2022/04/21 07:54:13;;;;;;;2.22;2.00;;;13.90;51.00;;;;;;4992273;28;20045;-65
2022/04/21 07:56:39;;;;;;;6.32;2.42;;;13.90;45.80;;;;;;5010145;28;20393;-65
2022/04/21 07:59:05;;;;;;;3.85;2.25;;;13.90;48.00;;;;;;5028311;28;20038;-65
2022/04/21 08:01:30;;;;;;;5.43;2.17;;;14.00;47.80;;;;;;4993009;28;20116;-65
2022/04/21 08:04:02;;;;;;;3.08;2.17;;;14.10;45.40;;;;;;5028655;28;20049;-65
2022/04/21 08:06:30;;;;;;;3.35;2.15;;;14.00;38.70;;;;;;5026218;28;20503;-65
2022/04/21 08:08:56;;;;;;;3.58;1.95;;;14.10;41.70;;;;;;5009507;28;20094;-65
2022/04/21 08:11:22;;;;;;;2.65;2.03;;;14.30;45.20;;;;;;5008440;28;20113;-65
2022/04/21 08:13:48;;;;;;;4.38;2.33;;;14.50;41.30;;;;;;5026885;28;20084;-65
2022/04/21 08:16:13;;;;;;;4.50;2.08;;;14.50;41.10;;;;;;5027539;28;20034;-65
2022/04/21 08:18:39;;;;;;;3.28;1.83;;;14.50;40.50;;;;;;5009407;28;20045;-65
2022/04/21 08:21:08;;;;;;;2.88;1.83;;;14.50;42.00;;;;;;5009888;28;20052;-64
2022/04/21 08:23:37;;;;;;;3.17;2.00;;;14.50;40.80;;;;;;5025178;28;20522;-65
2022/04/21 08:34:27;;;;;;;5.32;2.17;;;14.60;41.90;;;;;;5026911;28;20057;-65
2022/04/21 08:36:52;;;;;;;2.88;2.17;;;14.60;37.50;;;;;;5008108;28;20404;-65
2022/04/21 08:39:19;;;;;;;3.58;2.40;;;14.60;41.30;;;;;;5027688;28;20033;-65
2022/04/21 08:41:47;;;;;;;3.30;1.90;;;14.70;36.60;;;;;;5007903;28;20512;-65
2022/04/21 08:44:19;;;;;;;3.58;1.85;;;15.00;43.50;;;;;;5027216;28;20115;-65
2022/04/21 08:46:46;;;;;;;1.95;1.80;;;15.10;32.60;;;;;;5008410;28;20107;-65
2022/04/21 08:49:14;;;;;;;3.72;1.40;;;15.00;35.10;;;;;;4991971;28;20053;-65
2022/04/21 08:51:41;;;;;;;4.50;2.00;;;15.00;30.40;;;;;;5027267;28;20506;-65
2022/04/21 08:54:07;;;;;;;4.78;1.90;;;15.20;35.10;;;;;;5024990;28;20479;-68
2022/04/21 08:56:33;;;;;;;5.13;2.35;;;15.30;31.30;;;;;;5026901;28;20095;-68
2022/04/21 08:58:58;;;;;;;4.97;2.28;;;15.20;31.50;;;;;;5026226;28;20484;-68
2022/04/21 09:01:25;;;;;;;7.80;5.13;;;15.40;28.70;;;;;;5009812;28;20045;-68
2022/04/21 09:03:51;;;;;;;4.72;3.25;;;15.50;28.10;;;;;;5008352;28;20419;-68
2022/04/21 09:06:17;;;;;;;4.90;2.05;;;15.60;26.80;;;;;;5007858;28;20090;-67
2022/04/21 09:08:42;;;;;;;6.22;2.20;;;15.60;27.20;;;;;;5009710;28;20080;-68
2022/04/21 09:11:11;;;;;;;4.45;1.85;;;15.70;30.80;;;;;;5026080;28;20395;-68
2022/04/21 09:13:42;;;;;;;3.83;2.00;;;15.70;32.40;;;;;;5026894;28;20526;-68
2022/04/21 09:16:12;;;;;;;4.43;1.70;;;15.80;29.80;;;;;;5025578;28;20312;-68
2022/04/21 09:18:42;;;;;;;2.78;1.77;;;15.70;30.20;;;;;;5026278;28;20042;-68
2022/04/21 09:21:16;;;;;;;5.00;1.88;;;15.80;29.10;;;;;;5008220;28;20136;-68
2022/04/21 09:23:46;;;;;;;3.60;1.70;;;15.90;31.00;;;;;;5026229;28;20056;-68
2022/04/21 09:26:20;;;;;;;2.78;1.77;;;16.10;32.50;;;;;;5009394;28;20042;-67
2022/04/21 09:29:05;;;;;;;7.10;1.58;;;16.10;25.80;;;;;;5006067;28;20049;-67
2022/04/21 09:31:31;;;;;;;4.47;1.70;;;15.80;25.40;;;;;;5013920;28;20056;-68
2022/04/21 09:33:58;;;;;;;4.25;1.90;;;15.70;29.90;;;;;;5009033;28;20384;-68
2022/04/21 09:36:24;;;;;;;5.20;1.88;;;15.80;33.10;;;;;;4992428;28;20087;-68
2022/04/21 09:39:01;;;;;;;2.13;1.90;;;16.00;27.80;;;;;;5026108;28;20479;-68
2022/04/21 09:41:30;;;;;;;3.28;1.75;;;16.00;31.10;;;;;;5025601;28;20063;-67
2022/04/21 09:47:01;;;;;;;4.70;1.40;;;16.20;28.60;;;;;;5026540;28;20535;-67
2022/04/21 09:49:41;;;;;;;2.80;1.90;;;16.20;29.00;;;;;;5008551;28;20093;-68
2022/04/21 09:52:07;;;;;;;5.75;2.20;;;16.40;32.70;;;;;;5026544;28;20570;-68
2022/04/21 09:54:34;;;;;;;1.48;1.38;;;16.50;26.60;;;;;;5025534;28;20049;-68
2022/04/21 09:57:01;;;;;;;2.17;1.40;;;16.50;29.50;;;;;;5047081;28;20120;-68
2022/04/21 09:59:27;;;;;;;4.10;1.63;;;16.30;28.40;;;;;;5010870;28;20103;-67
2022/04/21 10:01:54;;;;;;;6.35;1.73;;;16.20;23.70;;;;;;5008191;28;20056;-68
2022/04/21 10:04:20;;;;;;;6.13;1.70;;;16.20;29.00;;;;;;5008637;28;20392;-67
2022/04/21 10:06:47;;;;;;;7.40;1.65;;;16.20;29.00;;;;;;5022256;28;20048;-68
2022/04/21 10:09:18;;;;;;;3.58;1.70;;;16.30;26.90;;;;;;5025065;28;20084;-67
2022/04/21 10:11:44;;;;;;;4.93;1.67;;;16.30;24.10;;;;;;5005967;28;20049;-67
2022/04/21 10:14:12;;;;;;;2.50;1.40;;;16.30;26.70;;;;;;5008966;28;20045;-67
2022/04/21 10:16:39;;;;;;;4.10;1.40;;;16.40;26.70;;;;;;5024835;28;20163;-68
2022/04/21 10:19:05;;;;;;;1.85;1.42;;;16.40;27.20;;;;;;5011687;28;20647;-68
2022/04/21 10:21:38;;;;;;;2.20;1.55;;;16.60;28.70;;;;;;5011697;28;20069;-67
2022/04/21 10:24:05;;;;;;;2.05;1.20;;;16.70;29.20;;;;;;5010941;28;20457;-68
2022/04/21 10:26:42;;;;;;;2.85;1.40;;;16.70;27.50;;;;;;5029821;28;20116;-67
2022/04/21 10:29:23;;;;;;;10.73;1.45;;;16.70;24.70;;;;;;5028351;28;20037;-67
2022/04/21 10:31:57;;;;;;;2.67;1.45;;;16.70;27.70;;;;;;5028513;28;20523;-68
2022/04/21 10:34:46;;;;;;;5.32;2.28;;;17.00;31.90;;;;;;5028693;28;20487;-68
2022/04/21 10:37:22;;;;;;;4.03;1.38;;;17.00;27.90;;;;;;5011527;28;20044;-67
2022/04/21 10:40:07;;;;;;;1.80;1.40;;;17.00;26.10;;;;;;5029051;28;20053;-68
2022/04/21 10:42:52;;;;;;;6.05;1.48;;;16.90;25.40;;;;;;5028262;28;20103;-68
2022/04/21 10:45:23;;;;;;;3.92;1.50;;;16.80;27.10;;;;;;5030029;28;20065;-68
2022/04/21 10:48:38;;;;;;;7.88;1.38;;;16.80;22.30;;;;;;5027770;28;20060;-67
2022/04/21 10:51:03;;;;;;;5.07;1.58;;;16.60;26.70;;;;;;4993438;28;20515;-67
2022/04/21 10:57:12;;;;;;;2.35;1.50;;;16.50;26.80;;;;;;5029969;28;20049;-67
2022/04/21 10:59:31;;;;;;;6.43;1.90;;;16.60;26.20;;;;;;5028450;28;20045;-68
2022/04/21 11:02:11;;;;;;;6.32;1.85;;;16.60;24.70;;;;;;5028772;28;20356;-67
2022/04/21 11:04:37;;;;;;;9.13;1.67;;;16.70;27.40;;;;;;5010232;28;20060;-67
2022/04/21 11:07:11;;;;;;;2.58;1.70;;;16.70;22.50;;;;;;5029311;28;20046;-67
2022/04/21 11:09:50;;;;;;;4.05;1.42;;;17.00;26.80;;;;;;5029937;28;20385;-67
2022/04/21 11:12:17;;;;;;;3.45;1.92;;;17.00;22.90;;;;;;5009667;28;20072;-67
2022/04/21 11:14:44;;;;;;;8.55;1.73;;;16.70;22.60;;;;;;5029468;28;20487;-67
2022/04/21 11:17:10;;;;;;;3.10;1.83;;;16.40;23.10;;;;;;5027768;28;20065;-67
2022/04/21 11:19:40;;;;;;;7.45;1.98;;;16.50;24.50;;;;;;5012123;28;20049;-67
2022/04/21 11:22:09;;;;;;;5.00;1.60;;;16.40;25.70;;;;;;5035167;28;20042;-67
2022/04/21 11:24:58;;;;;;;4.80;1.50;;;16.40;26.80;;;;;;4994439;28;20041;-67
2022/04/21 11:27:24;;;;;;;;;;;16.20;25.90;;;;;;5029942;28;20053;-67
2022/04/21 11:29:50;;;;;;;3.20;2.03;;;16.10;27.00;;;;;;5027307;28;19925;-67
2022/04/21 11:32:19;;;;;;;2.67;1.50;;;16.00;28.50;;;;;;5028802;28;20104;-68
2022/04/21 11:34:59;;;;;;;3.00;1.50;;;16.10;25.40;;;;;;5027784;28;20376;-67
2022/04/21 11:37:54;;;;;;;6.63;1.92;;;16.30;30.40;;;;;;5010534;28;20554;-68
2022/04/21 11:40:25;;;;;;;2.67;1.60;;;16.60;27.50;;;;;;5011144;28;20056;-68
2022/04/21 11:42:53;;;;;;;3.17;1.42;;;16.60;28.40;;;;;;5018351;28;20042;-67
2022/04/21 11:45:27;;;;;;;2.63;1.42;;;16.40;24.20;;;;;;5029095;28;20901;-68
2022/04/21 11:47:54;;;;;;;1.85;1.63;;;16.00;26.00;;;;;;5027809;28;20060;-68
2022/04/21 11:50:25;;;;;;;3.30;1.63;;;15.80;28.00;;;;;;5028622;28;20073;-68
2022/04/21 11:52:52;;;;;;;9.98;1.92;;;15.50;31.60;;;;;;5010453;28;20060;-67
2022/04/21 11:55:23;;;;;;;1.98;1.70;;;15.50;33.50;;;;;;5009186;28;20507;-68
2022/04/21 11:57:49;;;;;;;4.30;1.63;;;15.50;31.20;;;;;;5028548;28;20041;-67
2022/04/21 12:00:17;;;;;;;1.70;1.60;;;15.50;30.70;;;;;;5009405;28;20049;-68
2022/04/21 12:08:14;;;;;;;2.20;1.67;;;15.50;30.00;;;;;;5007956;28;20499;-68
2022/04/21 12:10:42;;;;;;;3.85;1.85;;;15.60;33.10;;;;;;5027834;28;20396;-66
2022/04/21 12:13:08;;;;;;;2.80;1.65;;;15.90;32.30;;;;;;5025619;28;20411;-66
2022/04/21 12:15:38;;;;;;;2.45;1.80;;;16.10;27.80;;;;;;5027893;28;20045;-66
2022/04/21 12:18:05;;;;;;;5.50;1.85;;;16.30;27.60;;;;;;5027061;28;20053;-66
2022/04/21 12:20:31;;;;;;;5.15;1.70;;;16.40;28.30;;;;;;5027353;28;20083;-66
2022/04/21 12:22:57;;;;;;;6.97;2.03;;;16.50;27.10;;;;;;5027303;28;20488;-66
2022/04/21 12:25:31;;;;;;;2.45;1.60;;;16.70;27.40;;;;;;5007394;28;20041;-66
2022/04/21 12:28:04;;;;;;;2.03;1.75;;;16.80;30.20;;;;;;5027000;28;20510;-66
2022/04/21 12:30:30;;;;;;;3.75;1.90;;;16.80;26.80;;;;;;5024746;28;20091;-66
2022/04/21 12:32:56;;;;;;;4.80;2.20;;;16.70;27.20;;;;;;5008280;28;20052;-66
2022/04/21 12:35:45;;;;;;;4.30;1.95;;;16.60;31.90;;;;;;5026450;28;20460;-66
2022/04/21 12:39:18;;;;;;;2.40;2.17;;;16.70;27.50;;;;;;5026049;28;20480;-66
2022/04/21 12:41:13;;;;;;;4.05;2.40;;;16.70;33.40;;;;;;5011999;28;20049;-66
2022/04/21 12:43:39;;;;;;;2.63;1.80;;;16.80;35.80;;;;;;5008115;28;20052;-66
2022/04/21 12:46:06;;;;;;;3.95;1.90;;;17.00;23.50;;;;;;5026779;28;20540;-66
2022/04/21 12:48:31;;;;;;;5.80;2.20;;;17.20;23.90;;;;;;5025600;28;20414;-66
2022/04/21 12:50:57;;;;;;;2.47;1.95;;;17.10;23.30;;;;;;5007408;28;20046;-66
2022/04/21 12:53:34;;;;;;;9.75;2.13;;;16.90;24.40;;;;;;5007970;28;20172;-66
2022/04/21 12:56:14;;;;;;;6.53;1.92;;;16.90;27.60;;;;;;5007891;28;20054;-66
2022/04/21 12:58:44;;;;;;;3.75;1.95;;;17.10;24.80;;;;;;5027916;28;20447;-66
2022/04/21 13:01:10;;;;;;;2.53;1.92;;;17.20;26.10;;;;;;5008201;28;20049;-66
2022/04/21 13:03:38;;;;;;;7.25;2.40;;;17.00;21.20;;;;;;5027370;28;20104;-66
2022/04/21 13:06:04;;;;;;;2.72;2.00;;;16.80;26.40;;;;;;5027268;28;20053;-66
2022/04/21 13:08:30;;;;;;;2.90;2.20;;;16.80;29.30;;;;;;5007515;28;20033;-67
2022/04/21 13:10:57;;;;;;;5.25;2.53;;;16.80;26.60;;;;;;5027075;28;20620;-66
2022/04/21 13:13:26;;;;;;;7.07;3.13;;;16.80;25.80;;;;;;5023017;28;20050;-67
2022/04/21 13:15:52;;;;;;;5.50;2.60;;;16.90;24.90;;;;;;5021924;28;20048;-66
2022/04/21 13:18:18;;;;;;;4.03;2.60;;;16.70;30.00;;;;;;5005281;28;20037;-66
2022/04/21 13:23:30;;;;;;;7.32;2.70;;;16.80;37.40;;;;;;5010300;28;20147;-66
2022/04/21 13:25:56;;;;;;;4.47;3.30;;;17.00;30.70;;;;;;5023720;28;20081;-66
2022/04/21 13:28:22;;;;;;;4.07;2.80;;;17.10;27.30;;;;;;5025511;28;20555;-66
2022/04/21 13:33:32;;;;;;;9.98;3.60;;;17.20;27.10;;;;;;5009766;28;20045;-66
2022/04/21 13:35:58;;;;;;;7.05;2.97;;;17.20;29.50;;;;;;5006385;28;20112;-66
2022/04/21 13:38:24;;;;;;;4.97;2.85;;;17.20;30.00;;;;;;5002247;28;20484;-66
2022/04/21 13:40:49;;;;;;;3.75;2.75;;;17.30;29.30;;;;;;5013553;28;20042;-66
2022/04/21 13:43:15;;;;;;;3.97;3.03;;;17.40;30.70;;;;;;5007134;28;20049;-66
2022/04/21 13:45:42;;;;;;;6.93;2.88;;;17.30;26.40;;;;;;5005196;28;20054;-66
2022/04/21 13:48:09;;;;;;;3.47;2.58;;;17.30;27.40;;;;;;5001759;28;20053;-66
2022/04/21 13:50:35;;;;;;;4.28;2.70;;;17.30;26.40;;;;;;4991013;28;20373;-66